Time;durP1;ratioP1;P1;durP2;ratioP2;P2;SDS_P1;SDS_P2;PMS_P1;PMS_P2;Temp;Humidity;BMP_temperature;BMP_pressure;BME280_temperature;BME280_humidity;BME280_pressure;Samples;Min_cycle;Max_cycle;Signal;HPM_P1;HPM_P2
2024/02/17 00:03:23;;;;;;;11.10;2.13;;;11.20;99.90;;;;;;10529935;28;20102;-68
2024/02/17 00:08:25;;;;;;;9.55;1.85;;;11.20;99.90;;;;;;10530282;28;20058;-68
2024/02/17 00:13:29;;;;;;;8.07;1.57;;;11.10;99.90;;;;;;10534646;28;20138;-68
2024/02/17 00:18:32;;;;;;;10.05;2.45;;;11.00;99.90;;;;;;10539593;28;20048;-67
2024/02/17 00:23:34;;;;;;;9.43;3.10;;;11.10;99.90;;;;;;10532773;28;20058;-67
2024/02/17 00:28:37;;;;;;;11.57;2.53;;;11.00;99.90;;;;;;10536167;28;20052;-66
2024/02/17 00:33:40;;;;;;;12.50;2.78;;;10.90;99.90;;;;;;10541740;28;20047;-67
2024/02/17 00:38:44;;;;;;;5.30;1.95;;;10.80;99.90;;;;;;10533194;28;20044;-66
2024/02/17 00:43:47;;;;;;;9.18;2.83;;;10.70;99.90;;;;;;10542661;28;20079;-67
2024/02/17 00:48:49;;;;;;;8.55;2.00;;;10.80;99.90;;;;;;10535502;28;20140;-67
2024/02/17 00:53:51;;;;;;;16.10;1.90;;;10.70;99.90;;;;;;10534531;28;20126;-67
2024/02/17 00:58:56;;;;;;;12.70;2.43;;;10.70;99.90;;;;;;10532729;28;20055;-68
2024/02/17 01:03:58;;;;;;;13.50;2.47;;;10.60;99.90;;;;;;10537043;28;20485;-67
2024/02/17 01:09:00;;;;;;;16.73;2.20;;;10.50;99.90;;;;;;10536281;28;20052;-67
2024/02/17 01:14:05;;;;;;;8.30;2.53;;;10.50;99.90;;;;;;10534163;28;20056;-68
2024/02/17 01:19:08;;;;;;;12.07;2.85;;;10.50;99.90;;;;;;10532128;28;20048;-68
2024/02/17 01:24:10;;;;;;;16.45;3.08;;;10.80;99.90;;;;;;10535129;28;20386;-67
2024/02/17 01:29:17;;;;;;;7.93;2.55;;;10.80;99.90;;;;;;10535836;28;20085;-66
2024/02/17 01:34:20;;;;;;;10.68;3.25;;;10.50;99.90;;;;;;10534766;28;20059;-69
2024/02/17 01:39:23;;;;;;;16.75;3.28;;;10.60;99.90;;;;;;10529760;28;20043;-68
2024/02/17 01:44:27;;;;;;;13.15;2.63;;;10.60;99.90;;;;;;10537156;28;20091;-67
2024/02/17 01:49:30;;;;;;;13.35;2.30;;;10.60;99.90;;;;;;10531582;28;20099;-67
2024/02/17 01:54:32;;;;;;;16.38;2.55;;;10.50;99.90;;;;;;10529279;28;20044;-68
2024/02/17 01:59:37;;;;;;;11.50;2.33;;;10.50;99.90;;;;;;10534292;28;20705;-67
2024/02/17 02:04:39;;;;;;;12.20;2.33;;;10.40;99.90;;;;;;10533713;28;20044;-66
2024/02/17 02:09:41;;;;;;;15.73;2.53;;;10.40;99.90;;;;;;10537607;28;22577;-67
2024/02/17 02:15:02;;;;;;;18.60;2.40;;;10.30;99.90;;;;;;10531723;27;20082;-68
2024/02/17 02:20:06;;;;;;;14.52;2.38;;;10.40;99.90;;;;;;10535317;28;20046;-67
2024/02/17 02:25:13;;;;;;;20.20;3.10;;;10.40;99.90;;;;;;10538275;28;20750;-67
2024/02/17 02:30:17;;;;;;;13.07;3.78;;;10.40;99.90;;;;;;10539425;28;20047;-66
2024/02/17 02:35:19;;;;;;;14.40;3.13;;;10.40;99.90;;;;;;10549921;28;20048;-65
2024/02/17 02:40:24;;;;;;;15.10;2.10;;;10.60;99.90;;;;;;10537860;28;20070;-67
2024/02/17 02:45:30;;;;;;;16.02;3.15;;;11.20;99.90;;;;;;10540982;28;20059;-69
2024/02/17 02:50:33;;;;;;;20.75;3.60;;;11.00;99.90;;;;;;10531174;28;20063;-68
2024/02/17 02:55:35;;;;;;;9.03;3.00;;;11.50;99.90;;;;;;10531510;28;20073;-68
2024/02/17 03:00:40;;;;;;;12.55;2.88;;;12.40;99.90;;;;;;10527137;28;20044;-67
2024/02/17 03:05:42;;;;;;;13.13;2.35;;;11.60;99.90;;;;;;10533429;28;20772;-67
2024/02/17 03:10:44;;;;;;;9.80;2.33;;;11.90;99.90;;;;;;10530633;28;20051;-68
2024/02/17 03:15:50;;;;;;;14.73;2.10;;;12.40;99.90;;;;;;10537241;28;20482;-68
2024/02/17 03:20:52;;;;;;;14.15;2.60;;;12.60;99.90;;;;;;10540321;28;20473;-68
2024/02/17 03:25:54;;;;;;;11.80;2.37;;;13.00;99.90;;;;;;10532783;28;20692;-67
2024/02/17 03:30:57;;;;;;;10.33;2.33;;;12.40;99.90;;;;;;10529214;28;20055;-68
2024/02/17 03:36:01;;;;;;;16.13;2.35;;;12.10;99.90;;;;;;10535090;28;20723;-68
2024/02/17 03:41:03;;;;;;;11.60;2.47;;;11.90;99.90;;;;;;10531105;28;20048;-67
2024/02/17 03:46:06;;;;;;;6.03;2.30;;;12.50;99.90;;;;;;10529949;28;20495;-67
2024/02/17 03:51:09;;;;;;;9.73;2.58;;;12.00;99.90;;;;;;10531321;28;20748;-67
2024/02/17 03:56:14;;;;;;;10.90;2.30;;;12.00;99.90;;;;;;10528183;28;20040;-67
2024/02/17 04:15:38;;;;;;;12.18;3.15;;;11.80;99.90;;;;;;10583677;27;20560;-67
2024/02/17 04:20:40;;;;;;;10.05;2.90;;;12.40;99.90;;;;;;10599967;27;20386;-68
2024/02/17 04:25:45;;;;;;;11.68;2.42;;;12.30;99.90;;;;;;10592069;27;21223;-67
2024/02/17 04:30:49;;;;;;;11.90;2.75;;;12.40;99.90;;;;;;10599979;27;20047;-68
2024/02/17 04:35:51;;;;;;;14.07;2.50;;;12.80;99.90;;;;;;10600548;27;20437;-67
2024/02/17 04:40:54;;;;;;;11.60;2.08;;;12.60;99.90;;;;;;10604539;27;20188;-68
2024/02/17 04:45:58;;;;;;;12.60;3.27;;;13.30;99.90;;;;;;10597459;27;20051;-67
2024/02/17 04:51:00;;;;;;;10.38;2.35;;;12.60;99.90;;;;;;10595490;27;20116;-68
2024/02/17 04:56:03;;;;;;;11.98;2.90;;;13.00;99.90;;;;;;10591885;27;20055;-68
2024/02/17 05:01:09;;;;;;;11.18;2.10;;;13.80;99.90;;;;;;10599563;27;20417;-66
2024/02/17 05:06:16;;;;;;;16.58;2.75;;;13.40;99.90;;;;;;10599613;27;20051;-68
2024/02/17 05:11:20;;;;;;;11.73;2.72;;;12.90;99.90;;;;;;10593787;27;20055;-66
2024/02/17 05:16:23;;;;;;;9.77;2.20;;;13.30;99.90;;;;;;10603664;27;20297;-67
2024/02/17 05:21:26;;;;;;;11.13;2.42;;;13.00;99.90;;;;;;10598140;27;20200;-67
2024/02/17 05:26:34;;;;;;;12.07;1.95;;;13.20;99.90;;;;;;10570222;27;20142;-68
2024/02/17 05:31:38;;;;;;;11.07;2.58;;;13.10;99.90;;;;;;10570227;27;20055;-68
2024/02/17 05:36:40;;;;;;;14.45;2.22;;;14.00;99.90;;;;;;10571085;27;20129;-68
2024/02/17 05:41:42;;;;;;;10.77;2.20;;;13.00;99.90;;;;;;10562874;27;20812;-67
2024/02/17 05:46:46;;;;;;;14.40;3.43;;;12.80;99.90;;;;;;10558015;27;20131;-69
2024/02/17 05:51:48;;;;;;;13.35;2.42;;;13.50;99.90;;;;;;10561954;27;21141;-68
2024/02/17 05:56:50;;;;;;;14.40;3.22;;;14.00;99.90;;;;;;10565634;27;20083;-68
2024/02/17 06:01:53;;;;;;;10.03;2.57;;;14.30;99.90;;;;;;10566017;27;20043;-67
2024/02/17 06:06:55;;;;;;;12.90;2.50;;;14.70;99.90;;;;;;10561741;27;20434;-68
2024/02/17 06:11:57;;;;;;;7.53;1.93;;;14.60;99.90;;;;;;10557300;27;20043;-67
2024/02/17 06:17:07;;;;;;;13.30;2.77;;;14.60;99.90;;;;;;10565627;27;20055;-67
2024/02/17 06:22:09;;;;;;;6.68;2.38;;;14.20;99.90;;;;;;10560075;27;20054;-68
2024/02/17 06:27:11;;;;;;;7.80;2.85;;;14.80;99.90;;;;;;10557082;27;20047;-68
2024/02/17 06:32:14;;;;;;;11.57;2.67;;;14.50;99.90;;;;;;10557678;27;20044;-68
2024/02/17 06:37:17;;;;;;;13.93;2.63;;;14.50;99.90;;;;;;10554257;27;20062;-69
2024/02/17 06:42:19;;;;;;;10.15;2.33;;;14.40;99.90;;;;;;10559191;27;20176;-69
2024/02/17 06:47:23;;;;;;;9.20;2.63;;;15.00;99.90;;;;;;10554039;27;20150;-69
2024/02/17 06:52:25;;;;;;;9.60;2.15;;;14.70;99.90;;;;;;10564111;27;20046;-69
2024/02/17 06:57:27;;;;;;;6.70;2.45;;;15.10;99.90;;;;;;10553489;27;20051;-69
2024/02/17 07:02:33;;;;;;;6.37;3.63;;;15.50;99.90;;;;;;10550866;27;20443;-70
2024/02/17 07:07:35;;;;;;;8.45;2.78;;;15.80;99.90;;;;;;10550852;27;20288;-69
2024/02/17 07:12:37;;;;;;;8.15;2.38;;;16.00;99.90;;;;;;10558523;27;20051;-69
2024/02/17 07:17:41;;;;;;;11.75;3.05;;;15.90;99.90;;;;;;10550134;27;20055;-68
2024/02/17 07:22:43;;;;;;;13.63;3.28;;;13.60;99.90;;;;;;10554897;27;20047;-68
2024/02/17 07:27:46;;;;;;;9.60;3.00;;;12.50;99.90;;;;;;10550148;27;20961;-68
2024/02/17 07:32:50;;;;;;;8.60;3.17;;;11.70;99.90;;;;;;10556090;27;20055;-68
2024/02/17 07:37:52;;;;;;;11.10;3.55;;;11.60;99.90;;;;;;10544982;27;20062;-69
2024/02/17 07:42:54;;;;;;;17.83;4.35;;;11.40;99.90;;;;;;10552920;27;20060;-69
2024/02/17 07:47:58;;;;;;;9.90;2.70;;;10.90;99.90;;;;;;10546849;27;20060;-68
2024/02/17 07:53:00;;;;;;;11.55;3.15;;;11.30;99.90;;;;;;10553701;27;20124;-68
2024/02/17 07:58:05;;;;;;;16.48;3.60;;;11.00;99.90;;;;;;10547298;27;20756;-68
2024/02/17 08:03:10;;;;;;;8.10;2.50;;;11.20;99.90;;;;;;10539198;27;20044;-68
2024/02/17 08:08:12;;;;;;;11.35;2.70;;;13.90;99.90;;;;;;10539418;27;20089;-68
2024/02/17 08:13:15;;;;;;;8.30;2.30;;;14.40;99.90;;;;;;10541443;28;20098;-69
2024/02/17 08:18:18;;;;;;;12.50;2.67;;;15.30;99.90;;;;;;10525485;28;20504;-64
2024/02/17 08:23:20;;;;;;;9.43;2.65;;;13.90;99.90;;;;;;10544274;28;20047;-65
2024/02/17 08:28:23;;;;;;;8.23;2.43;;;14.20;99.90;;;;;;10549458;28;20059;-64
2024/02/17 08:33:26;;;;;;;14.90;2.57;;;13.30;99.90;;;;;;10546827;28;20082;-65
2024/02/17 08:38:28;;;;;;;7.88;2.60;;;14.50;99.90;;;;;;10547928;27;20412;-64
2024/02/17 08:43:30;;;;;;;6.03;2.57;;;14.70;99.90;;;;;;10548941;27;20047;-66
2024/02/17 08:48:33;;;;;;;9.07;2.97;;;14.60;99.90;;;;;;10544487;28;20051;-66
2024/02/17 08:53:35;;;;;;;14.05;3.25;;;14.60;99.90;;;;;;10549941;28;20056;-64
2024/02/17 08:58:38;;;;;;;11.13;2.83;;;14.90;99.90;;;;;;10550235;27;20143;-65
2024/02/17 09:03:43;;;;;;;8.93;3.60;;;15.60;99.90;;;;;;10544376;27;20071;-67
2024/02/17 09:08:45;;;;;;;6.32;2.88;;;15.50;99.90;;;;;;10551214;27;20104;-65
2024/02/17 09:13:48;;;;;;;6.63;2.73;;;15.50;99.90;;;;;;10558874;27;20052;-63
2024/02/17 09:18:52;;;;;;;;;;;15.30;99.90;;;;;;10566479;27;20052;-62
2024/02/17 09:23:54;;;;;;;14.32;4.13;;;16.70;99.90;;;;;;10568948;27;20272;-62
2024/02/17 09:28:56;;;;;;;10.50;2.60;;;17.10;99.90;;;;;;10568077;27;20056;-61
2024/02/17 09:34:00;;;;;;;10.50;3.10;;;17.50;99.90;;;;;;10565028;27;20047;-60
2024/02/17 09:39:02;;;;;;;11.43;3.28;;;17.50;99.90;;;;;;10561696;27;20047;-61
2024/02/17 09:44:05;;;;;;;11.07;2.72;;;17.50;99.90;;;;;;10575804;27;20148;-61
2024/02/17 09:49:08;;;;;;;9.88;2.88;;;17.70;99.90;;;;;;10580471;27;20054;-58
2024/02/17 09:54:11;;;;;;;12.60;2.85;;;17.50;99.90;;;;;;10578733;27;20536;-61
2024/02/17 09:59:13;;;;;;;;;;;17.70;99.90;;;;;;10561620;27;20042;-61
2024/02/17 10:04:18;;;;;;;10.60;3.07;;;17.70;99.90;;;;;;10552872;27;20386;-62
2024/02/17 10:09:21;;;;;;;10.07;3.22;;;17.90;99.90;;;;;;10549469;27;20059;-60
2024/02/17 10:14:24;;;;;;;9.85;2.85;;;17.60;99.90;;;;;;10549975;27;20375;-57
2024/02/17 10:19:27;;;;;;;;;;;17.50;99.90;;;;;;10554756;27;20494;-61
2024/02/17 10:24:29;;;;;;;;;;;17.80;99.90;;;;;;10562117;27;20634;-62
2024/02/17 10:29:31;;;;;;;15.35;2.92;;;18.10;99.90;;;;;;10556259;27;19923;-60
2024/02/17 10:34:35;;;;;;;14.70;3.28;;;18.20;99.90;;;;;;10544657;27;20051;-61
2024/02/17 10:39:37;;;;;;;8.25;2.85;;;18.10;99.90;;;;;;10550250;27;20050;-62
2024/02/17 10:44:39;;;;;;;9.10;3.20;;;17.40;99.90;;;;;;10550408;27;20134;-61
2024/02/17 10:49:49;;;;;;;10.85;3.17;;;16.40;99.90;;;;;;10552494;27;20099;-63
2024/02/17 10:54:56;;;;;;;9.95;3.10;;;17.60;99.90;;;;;;10556742;27;20039;-62
2024/02/17 11:00:00;;;;;;;7.00;2.42;;;17.70;99.90;;;;;;10552355;27;20082;-63
2024/02/17 11:05:04;;;;;;;11.32;3.33;;;18.00;99.90;;;;;;10545077;27;20499;-62
2024/02/17 11:10:07;;;;;;;10.52;2.65;;;18.20;99.90;;;;;;10553623;27;20048;-61
2024/02/17 11:15:11;;;;;;;8.35;2.83;;;18.10;99.90;;;;;;10545819;27;20124;-60
2024/02/17 11:20:15;;;;;;;9.82;3.15;;;18.50;99.90;;;;;;10555509;27;20051;-62
2024/02/17 11:25:28;;;;;;;8.20;2.83;;;17.40;99.90;;;;;;10540621;27;20051;-57
2024/02/17 11:30:47;;;;;;;11.80;2.80;;;16.60;99.90;;;;;;10548897;27;20148;-58
2024/02/17 11:35:50;;;;;;;7.65;3.00;;;16.60;99.90;;;;;;10551027;27;20052;-59
2024/02/17 11:40:54;;;;;;;5.78;1.98;;;15.30;99.90;;;;;;10544479;27;20059;-61
2024/02/17 11:45:57;;;;;;;8.57;2.33;;;15.60;99.90;;;;;;10545625;27;20229;-60
2024/02/17 11:51:15;;;;;;;4.45;2.22;;;14.50;99.90;;;;;;10552027;27;20057;-60
2024/02/17 11:56:21;;;;;;;10.30;2.47;;;15.70;99.90;;;;;;10556446;27;20055;-60
2024/02/17 12:01:24;;;;;;;8.65;2.53;;;16.40;99.90;;;;;;10546890;27;20059;-60
2024/02/17 12:06:27;;;;;;;6.38;2.95;;;15.80;99.90;;;;;;10551625;27;20071;-59
2024/02/17 12:11:29;;;;;;;8.02;2.33;;;16.00;99.90;;;;;;10552462;27;20055;-60
2024/02/17 12:16:31;;;;;;;9.97;2.27;;;14.40;99.90;;;;;;10538391;28;20544;-59
2024/02/17 12:21:36;;;;;;;4.43;1.40;;;13.80;99.90;;;;;;10545881;28;20165;-59
2024/02/17 12:26:38;;;;;;;7.05;2.20;;;14.20;99.90;;;;;;10530089;28;20726;-60
2024/02/17 12:31:46;;;;;;;8.27;1.45;;;13.80;99.90;;;;;;10537638;27;20685;-61
2024/02/17 12:36:53;;;;;;;4.43;1.45;;;14.00;99.90;;;;;;10548687;27;20414;-60
2024/02/17 12:42:04;;;;;;;9.00;1.83;;;14.20;99.90;;;;;;10545188;27;20047;-60
2024/02/17 12:47:15;;;;;;;6.47;1.60;;;14.00;99.90;;;;;;10546361;27;20143;-60
2024/02/17 12:52:20;;;;;;;9.52;2.28;;;13.80;99.90;;;;;;10548051;27;20047;-57
2024/02/17 12:57:22;;;;;;;9.77;2.25;;;13.80;99.90;;;;;;10558772;27;20500;-58
2024/02/17 13:02:24;;;;;;;15.43;2.50;;;14.10;99.90;;;;;;10557942;27;20058;-59
2024/02/17 13:07:28;;;;;;;11.87;3.20;;;15.30;99.90;;;;;;10557173;27;20039;-60
2024/02/17 13:12:31;;;;;;;8.50;2.25;;;15.70;99.90;;;;;;10562271;27;20136;-60
2024/02/17 13:17:33;;;;;;;19.08;3.50;;;16.20;99.90;;;;;;10559410;27;20608;-59
2024/02/17 13:22:37;;;;;;;15.00;3.33;;;15.40;99.90;;;;;;10557058;27;20996;-58
2024/02/17 13:27:39;;;;;;;11.82;2.65;;;15.20;99.90;;;;;;10560772;27;20075;-57
2024/02/17 13:32:43;;;;;;;11.23;3.35;;;16.10;99.90;;;;;;10558301;27;20055;-59
2024/02/17 13:37:47;;;;;;;11.63;3.08;;;16.00;99.90;;;;;;10558492;27;20063;-59
2024/02/17 13:42:49;;;;;;;8.85;2.22;;;15.10;99.90;;;;;;10555275;27;20051;-59
2024/02/17 13:47:51;;;;;;;12.30;2.17;;;14.20;99.90;;;;;;10559188;27;20193;-58
2024/02/17 13:52:54;;;;;;;8.40;2.90;;;14.80;99.90;;;;;;10564601;27;20078;-58
2024/02/17 13:57:56;;;;;;;13.48;2.33;;;14.50;99.90;;;;;;10560649;27;21316;-59
2024/02/17 14:03:01;;;;;;;11.90;2.50;;;14.80;99.90;;;;;;10564395;27;20086;-58
2024/02/17 14:08:04;;;;;;;14.82;2.30;;;14.00;99.90;;;;;;10567872;27;20054;-59
2024/02/17 14:13:06;;;;;;;6.35;2.08;;;14.00;99.90;;;;;;10565412;27;20058;-59
2024/02/17 14:18:09;;;;;;;9.30;1.77;;;14.10;99.90;;;;;;10562566;27;20508;-59
2024/02/17 14:23:12;;;;;;;24.02;2.50;;;13.90;99.90;;;;;;10562491;27;20855;-60
2024/02/17 14:28:14;;;;;;;10.77;2.47;;;13.80;99.90;;;;;;10557512;27;20056;-60
2024/02/17 14:33:17;;;;;;;10.90;1.80;;;13.90;99.90;;;;;;10568030;27;20119;-60
2024/02/17 14:38:20;;;;;;;7.05;1.73;;;14.00;99.90;;;;;;10559589;27;20048;-60
2024/02/17 14:43:22;;;;;;;11.13;1.48;;;14.80;99.90;;;;;;10562424;27;20044;-59
2024/02/17 14:48:26;;;;;;;14.38;1.80;;;14.40;99.90;;;;;;10545522;27;20203;-59
2024/02/17 14:53:30;;;;;;;9.07;1.90;;;13.90;99.90;;;;;;10550726;27;20904;-58
2024/02/17 14:58:32;;;;;;;14.30;2.95;;;14.20;99.90;;;;;;10552093;27;20051;-60
2024/02/17 15:03:34;;;;;;;16.52;3.10;;;14.80;99.90;;;;;;10550105;27;20043;-60
2024/02/17 15:08:38;;;;;;;9.00;2.20;;;14.40;99.90;;;;;;10552657;27;20075;-59
2024/02/17 15:13:40;;;;;;;10.68;2.60;;;14.10;99.90;;;;;;10548132;27;20509;-61
2024/02/17 15:18:42;;;;;;;16.90;2.90;;;14.10;99.90;;;;;;10547488;27;20121;-58
2024/02/17 15:23:46;;;;;;;10.52;2.13;;;15.00;99.90;;;;;;10548753;27;20137;-60
2024/02/17 15:28:48;;;;;;;11.60;2.42;;;14.10;99.90;;;;;;10549735;27;20281;-59
2024/02/17 15:33:50;;;;;;;19.63;3.73;;;14.10;99.90;;;;;;10544277;27;20043;-60
2024/02/17 15:38:53;;;;;;;16.02;3.38;;;14.40;99.90;;;;;;10549464;27;20138;-59
2024/02/17 15:43:55;;;;;;;8.43;2.63;;;15.00;99.90;;;;;;10555395;27;20619;-61
2024/02/17 15:48:57;;;;;;;12.20;2.67;;;17.30;99.90;;;;;;10547703;27;20071;-59
2024/02/17 15:54:01;;;;;;;14.80;2.77;;;18.10;99.90;;;;;;10564335;27;20455;-60
2024/02/17 15:59:03;;;;;;;21.13;2.95;;;16.10;99.90;;;;;;10538749;27;20047;-59
2024/02/17 16:04:05;;;;;;;13.23;3.47;;;13.90;99.90;;;;;;10546229;27;20061;-61
2024/02/17 16:09:08;;;;;;;14.73;3.63;;;13.40;99.90;;;;;;10542861;27;20058;-58
2024/02/17 16:14:10;;;;;;;17.00;4.43;;;13.90;99.90;;;;;;10548673;27;20118;-57
2024/02/17 16:19:12;;;;;;;14.87;2.80;;;15.10;99.90;;;;;;10554459;28;20052;-60
2024/02/17 16:24:16;;;;;;;12.33;3.20;;;16.10;99.90;;;;;;10531964;28;20142;-58
2024/02/17 16:29:18;;;;;;;13.00;2.75;;;15.30;99.90;;;;;;10549466;28;20841;-55
2024/02/17 16:34:21;;;;;;;15.97;3.10;;;15.20;99.90;;;;;;10549070;27;20481;-59
2024/02/17 16:39:25;;;;;;;17.27;4.28;;;14.70;99.90;;;;;;10546897;28;21308;-58
2024/02/17 16:44:27;;;;;;;18.13;4.30;;;13.60;99.90;;;;;;10549009;28;20071;-57
2024/02/17 16:49:29;;;;;;;15.47;3.93;;;13.50;99.90;;;;;;10545068;28;20114;-59
2024/02/17 16:54:32;;;;;;;15.43;4.13;;;12.80;99.90;;;;;;10549962;28;20538;-59
2024/02/17 16:59:36;;;;;;;11.05;4.30;;;16.20;99.90;;;;;;10546604;27;20923;-59
2024/02/17 17:04:39;;;;;;;19.35;7.55;;;18.90;99.90;;;;;;10553697;27;20059;-59
2024/02/17 17:09:42;;;;;;;19.02;10.43;;;19.10;99.90;;;;;;10549212;28;20062;-59
2024/02/17 17:14:44;;;;;;;30.85;21.55;;;19.40;99.90;;;;;;10552369;28;20055;-59
2024/02/17 17:19:46;;;;;;;15.40;3.38;;;19.60;99.90;;;;;;10553351;27;20062;-60
2024/02/17 17:24:50;;;;;;;12.18;3.78;;;17.60;99.90;;;;;;10553979;27;20035;-59
2024/02/17 17:29:52;;;;;;;16.88;6.38;;;15.40;99.90;;;;;;10550041;27;20078;-59
2024/02/17 17:34:54;;;;;;;11.25;2.80;;;15.60;99.90;;;;;;10549065;27;20078;-58
2024/02/17 17:39:58;;;;;;;35.28;20.75;;;15.40;99.90;;;;;;10553916;27;20047;-60
2024/02/17 17:45:00;;;;;;;11.27;3.10;;;17.10;99.90;;;;;;10551684;27;20426;-59
2024/02/17 17:50:03;;;;;;;41.13;32.47;;;16.90;99.90;;;;;;10551281;27;20054;-60
2024/02/17 17:55:07;;;;;;;47.80;34.33;;;18.00;99.90;;;;;;10552672;27;20043;-62
2024/02/17 18:00:13;;;;;;;19.25;13.98;;;18.00;99.90;;;;;;10546532;27;20138;-56
2024/02/17 18:05:15;;;;;;;14.20;3.60;;;19.10;99.90;;;;;;10544770;27;20035;-58
2024/02/17 18:10:20;;;;;;;16.35;3.35;;;18.10;99.90;;;;;;10547718;27;20619;-57
2024/02/17 18:15:24;;;;;;;28.15;22.80;;;16.70;99.90;;;;;;10549386;27;20127;-59
2024/02/17 18:20:28;;;;;;;13.55;4.70;;;17.80;99.90;;;;;;10545805;27;20051;-58
2024/02/17 18:25:31;;;;;;;17.90;5.15;;;17.70;99.90;;;;;;10551055;27;20047;-58
2024/02/17 18:30:33;;;;;;;18.33;6.53;;;16.80;99.90;;;;;;10553407;27;20158;-64
2024/02/17 18:35:36;;;;;;;21.23;4.32;;;17.80;99.90;;;;;;10548592;27;20077;-61
2024/02/17 18:40:40;;;;;;;;;;;16.70;99.90;;;;;;10551875;27;20127;-61
2024/02/17 18:45:44;;;;;;;26.23;18.42;;;18.60;99.90;;;;;;10553116;27;20380;-62
2024/02/17 18:50:46;;;;;;;12.57;4.45;;;19.50;99.90;;;;;;10548949;27;20058;-61
2024/02/17 18:55:50;;;;;;;18.33;11.23;;;18.90;99.90;;;;;;10552384;27;20052;-63
2024/02/17 19:00:52;;;;;;;21.98;16.52;;;19.00;99.90;;;;;;10550063;27;20162;-61
2024/02/17 19:05:54;;;;;;;12.25;6.03;;;19.40;99.90;;;;;;10545922;27;20832;-61
2024/02/17 19:10:57;;;;;;;14.68;10.00;;;19.70;99.90;;;;;;10547679;27;20849;-61
2024/02/17 19:15:59;;;;;;;11.60;5.18;;;19.80;99.90;;;;;;10549642;27;20170;-61
2024/02/17 19:21:02;;;;;;;16.17;9.65;;;19.70;99.90;;;;;;10550499;27;20056;-61
2024/02/17 19:26:05;;;;;;;14.93;7.30;;;19.60;99.90;;;;;;10554546;27;20047;-62
2024/02/17 19:31:08;;;;;;;8.13;2.13;;;20.10;99.90;;;;;;10549000;27;20067;-62
2024/02/17 19:36:10;;;;;;;6.18;2.78;;;19.30;99.90;;;;;;10553878;27;20423;-60
2024/02/17 19:41:16;;;;;;;11.80;3.13;;;19.90;99.90;;;;;;10554130;27;20524;-61
2024/02/17 19:46:18;;;;;;;13.27;2.65;;;19.90;99.90;;;;;;10550478;27;20043;-61
2024/02/17 19:51:20;;;;;;;9.45;3.17;;;20.00;99.90;;;;;;10551777;27;20066;-61
2024/02/17 19:56:23;;;;;;;14.27;3.35;;;19.80;99.90;;;;;;10543551;27;20655;-61
2024/02/17 20:01:28;;;;;;;18.02;4.22;;;20.00;99.90;;;;;;10552287;27;20062;-60
2024/02/17 20:06:30;;;;;;;10.52;2.90;;;19.30;99.90;;;;;;10549660;27;20126;-60
2024/02/17 20:11:34;;;;;;;11.15;3.22;;;17.50;99.90;;;;;;10552048;27;20090;-63
2024/02/17 20:16:36;;;;;;;14.45;3.15;;;18.20;99.90;;;;;;10555333;27;20112;-62
2024/02/17 20:21:40;;;;;;;16.33;3.35;;;18.60;99.90;;;;;;10559854;27;20043;-61
2024/02/17 20:26:43;;;;;;;16.38;3.85;;;18.40;99.90;;;;;;10550945;28;20051;-62
2024/02/17 20:31:45;;;;;;;9.05;2.72;;;18.80;99.90;;;;;;10549991;28;20821;-63
2024/02/17 20:36:48;;;;;;;6.35;2.70;;;18.80;99.90;;;;;;10554424;28;20656;-63
2024/02/17 20:41:52;;;;;;;10.63;3.40;;;18.50;99.90;;;;;;10553970;27;20048;-62
2024/02/17 20:46:54;;;;;;;14.27;2.58;;;18.50;99.90;;;;;;10559662;28;20056;-62
2024/02/17 20:51:56;;;;;;;;;;;17.40;99.90;;;;;;10553157;27;20062;-61
2024/02/17 20:57:01;;;;;;;7.68;3.22;;;16.70;99.90;;;;;;10562518;27;20721;-63
2024/02/17 21:02:03;;;;;;;10.95;3.13;;;18.60;99.90;;;;;;10557286;27;20051;-61
2024/02/17 21:07:06;;;;;;;10.68;2.90;;;18.90;99.90;;;;;;10559432;27;20487;-63
2024/02/17 21:12:09;;;;;;;9.90;3.00;;;19.00;99.90;;;;;;10554696;27;20047;-62
2024/02/17 21:17:11;;;;;;;7.30;3.00;;;19.30;99.90;;;;;;10563404;27;20059;-61
2024/02/17 21:22:13;;;;;;;9.60;3.55;;;18.80;99.90;;;;;;10562902;27;20113;-62
2024/02/17 21:27:17;;;;;;;10.25;3.40;;;18.80;99.90;;;;;;10561233;27;20503;-64
2024/02/17 21:32:19;;;;;;;11.88;3.88;;;17.40;99.90;;;;;;10555965;27;20472;-62
2024/02/17 21:37:21;;;;;;;8.60;3.58;;;18.30;99.90;;;;;;10556093;27;20043;-63
2024/02/17 21:42:25;;;;;;;6.75;2.55;;;17.70;99.90;;;;;;10550600;27;20099;-61
2024/02/17 21:47:27;;;;;;;9.77;3.25;;;18.90;99.90;;;;;;10559966;27;20146;-62
2024/02/17 21:52:29;;;;;;;8.97;4.10;;;18.30;99.90;;;;;;10553923;27;20047;-62
2024/02/17 21:57:32;;;;;;;7.67;3.87;;;17.50;99.90;;;;;;10554883;27;20602;-61
2024/02/17 22:02:37;;;;;;;8.52;4.90;;;16.90;99.90;;;;;;10558087;27;20109;-62
2024/02/17 22:07:39;;;;;;;10.13;4.68;;;15.70;99.90;;;;;;10550893;27;20040;-62
2024/02/17 22:12:42;;;;;;;11.67;4.40;;;15.40;99.90;;;;;;10566147;27;20051;-62
2024/02/17 22:17:44;;;;;;;11.27;5.82;;;15.90;99.90;;;;;;10559912;27;20058;-62
2024/02/17 22:22:46;;;;;;;7.40;4.20;;;15.90;99.90;;;;;;10569848;27;20050;-62
2024/02/17 22:27:50;;;;;;;9.27;5.13;;;15.20;99.90;;;;;;10560200;27;20364;-61
2024/02/17 22:32:52;;;;;;;15.90;8.07;;;14.60;99.90;;;;;;10562150;27;20086;-61
2024/02/17 22:37:54;;;;;;;10.63;5.90;;;14.00;99.90;;;;;;10568385;27;20469;-60
2024/02/17 22:42:58;;;;;;;9.10;5.68;;;14.70;99.90;;;;;;10549034;27;20411;-61
2024/02/17 22:48:00;;;;;;;8.95;5.30;;;15.80;99.90;;;;;;10553706;27;20502;-63
2024/02/17 22:53:02;;;;;;;8.50;4.37;;;15.80;99.90;;;;;;10565276;27;20471;-62
2024/02/17 22:58:05;;;;;;;10.30;4.93;;;16.20;99.90;;;;;;10564818;27;20050;-62
2024/02/17 23:03:07;;;;;;;10.13;5.38;;;16.40;99.90;;;;;;10559113;27;20047;-62
2024/02/17 23:08:10;;;;;;;7.80;4.57;;;16.60;99.90;;;;;;10561968;27;20100;-62
2024/02/17 23:13:13;;;;;;;8.60;4.40;;;16.60;99.90;;;;;;10558409;27;21050;-62
2024/02/17 23:18:15;;;;;;;9.55;4.38;;;16.50;99.90;;;;;;10564799;27;20780;-62
2024/02/17 23:23:17;;;;;;;7.17;3.57;;;16.10;99.90;;;;;;10562247;27;20058;-62
2024/02/17 23:28:27;;;;;;;8.15;4.22;;;16.20;99.90;;;;;;10549912;27;20819;-64
2024/02/17 23:33:29;;;;;;;6.60;2.92;;;16.30;99.90;;;;;;10550490;27;20915;-62
2024/02/17 23:38:31;;;;;;;10.37;3.90;;;16.40;99.90;;;;;;10546766;27;20052;-62
2024/02/17 23:43:35;;;;;;;10.10;3.50;;;16.30;99.90;;;;;;10553258;27;20062;-61
2024/02/17 23:48:37;;;;;;;7.13;3.40;;;16.30;99.90;;;;;;10548106;27;20592;-61
2024/02/17 23:53:40;;;;;;;9.73;4.23;;;15.00;99.90;;;;;;10551642;27;20059;-62
2024/02/17 23:58:43;;;;;;;6.67;3.30;;;15.10;99.90;;;;;;10550511;27;20504;-63
